Studley, United Kingdom
Current Conditions -  °F | °C
As of 3:20 AM on Monday 22 Dec 2014 (Local Time) from EGBB Reporting Station
Few Clouds Few Clouds  
Wind Chill: 55°   Ceiling: Unl
Heat Index: 55°   Visibility: 6mi
Dew Point: 48°   Wind: 16mph
Humidity: 77%   Direction: 250°WSW
Pressure: 29.97"   Gusts: 28mph
Location:  52.27°N, 1.89°W
Report Text: EGBB 220320Z 25014G24KT 210V270 9999 FEW019 13/09 Q1015
Loading
Personal Weather Stations






























Interactive Weather Map New forecast layout! Learn more

10-Day Weather Forecast

Advertisements
Track Severe Weather on mobile